DLH912 KTTS-KBOS
Flight info
| Callsign | DLH912 |
|---|---|
| Flight time | N/A |
| Altitude | 39000 |
| Route | APOLO AR15 BAHAA AR17 WAALT Q131 KALDA Q167 ZJAAY Q97 CCC |
| Aircraft | B789/H-SDE1E2E3FGHIJ2J3J4J5M1RWXY/LB1D1 |
Departure
| Time | 2026-04-19 20:49 |
|---|---|
| Airport | Space Florida Launch and Landing Facility (KTTS) |
Arrival
| Time | N/A |
|---|---|
| Airport | Boston Logan International Airport (KBOS) |
| Time | Latitude | Longitude | Altitude | Speed | Heading |
|---|---|---|---|---|---|
| 2026-04-19 20:28 | 28.60017 | -80.68035 | 21 ft | 0 kts | 146° |
| 2026-04-19 20:43 | 28.60010 | -80.68030 | 21 ft | 3 kts | 146° |
| 2026-04-19 20:43 | 28.59985 | -80.68020 | 23 ft | 7 kts | 169° |
| 2026-04-19 20:43 | 28.59905 | -80.68034 | 20 ft | 16 kts | 195° |
| 2026-04-19 20:44 | 28.59772 | -80.68094 | 21 ft | 24 kts | 219° |
| 2026-04-19 20:44 | 28.59770 | -80.68261 | 27 ft | 25 kts | 298° |
| 2026-04-19 20:44 | 28.59904 | -80.68414 | 25 ft | 31 kts | 329° |
| 2026-04-19 20:44 | 28.60114 | -80.68548 | 30 ft | 38 kts | 331° |
| 2026-04-19 20:45 | 28.60372 | -80.68708 | 28 ft | 46 kts | 332° |
| 2026-04-19 20:45 | 28.60677 | -80.68892 | 20 ft | 53 kts | 331° |
| 2026-04-19 20:45 | 28.61014 | -80.69116 | 26 ft | 58 kts | 328° |
| 2026-04-19 20:45 | 28.61383 | -80.69357 | 22 ft | 63 kts | 330° |
| 2026-04-19 20:46 | 28.61782 | -80.69617 | 21 ft | 68 kts | 329° |
| 2026-04-19 20:46 | 28.62194 | -80.69887 | 27 ft | 68 kts | 331° |
| 2026-04-19 20:46 | 28.62594 | -80.70148 | 27 ft | 63 kts | 329° |
| 2026-04-19 20:46 | 28.62932 | -80.70373 | 28 ft | 48 kts | 333° |
| 2026-04-19 20:47 | 28.63190 | -80.70499 | 28 ft | 24 kts | 323° |
| 2026-04-19 20:47 | 28.63200 | -80.70570 | 27 ft | 2 kts | 217° |
| 2026-04-19 20:47 | 28.63189 | -80.70566 | 27 ft | 3 kts | 149° |
| 2026-04-19 20:47 | 28.63181 | -80.70560 | 27 ft | 0 kts | 149° |
| 2026-04-19 20:48 | 28.63142 | -80.70534 | 28 ft | 26 kts | 149° |
| 2026-04-19 20:48 | 28.62795 | -80.70292 | 31 ft | 91 kts | 150° |
| 2026-04-19 20:48 | 28.62066 | -80.69819 | 29 ft | 147 kts | 150° |
| 2026-04-19 20:49 | 28.61056 | -80.69170 | 254 ft | 176 kts | 151° |
| 2026-04-19 20:49 | 28.59943 | -80.68459 | 794 ft | 201 kts | 149° |
| 2026-04-19 20:49 | 28.58590 | -80.67485 | 819 ft | 252 kts | 148° |
| 2026-04-19 20:49 | 28.57090 | -80.66393 | 1684 ft | 244 kts | 148° |
| 2026-04-19 20:50 | 28.55670 | -80.65339 | 1699 ft | 262 kts | 148° |
| 2026-04-19 20:50 | 28.54161 | -80.64207 | 1875 ft | 251 kts | 147° |
| 2026-04-19 20:50 | 28.52632 | -80.63061 | 2211 ft | 268 kts | 148° |
| 2026-04-19 20:50 | 28.51085 | -80.61899 | 2456 ft | 270 kts | 148° |
| 2026-04-19 20:51 | 28.49517 | -80.60708 | 2714 ft | 271 kts | 148° |
| 2026-04-19 20:51 | 28.47950 | -80.59513 | 2981 ft | 272 kts | 148° |
| 2026-04-19 20:51 | 28.46371 | -80.58300 | 3294 ft | 272 kts | 148° |
| 2026-04-19 20:51 | 28.44821 | -80.57031 | 3464 ft | 276 kts | 138° |
| 2026-04-19 20:52 | 28.43955 | -80.55138 | 3787 ft | 278 kts | 100° |
| 2026-04-19 20:52 | 28.43902 | -80.52909 | 3967 ft | 281 kts | 86° |
| 2026-04-19 20:52 | 28.44083 | -80.50717 | 4221 ft | 282 kts | 83° |
| 2026-04-19 20:52 | 28.44312 | -80.48505 | 4451 ft | 284 kts | 83° |
| 2026-04-19 20:53 | 28.44554 | -80.46244 | 4696 ft | 284 kts | 83° |
| 2026-04-19 20:53 | 28.44925 | -80.44056 | 4830 ft | 286 kts | 63° |
| 2026-04-19 20:53 | 28.46198 | -80.42424 | 5091 ft | 278 kts | 28° |
| 2026-04-19 20:53 | 28.47966 | -80.41561 | 5237 ft | 278 kts | 16° |
| 2026-04-19 20:54 | 28.49785 | -80.40806 | 5473 ft | 279 kts | 21° |
| 2026-04-19 20:54 | 28.51531 | -80.39780 | 5689 ft | 280 kts | 30° |
| 2026-04-19 20:54 | 28.53128 | -80.38612 | 6359 ft | 276 kts | 31° |
| 2026-04-19 20:54 | 28.54810 | -80.37437 | 7091 ft | 285 kts | 28° |
| 2026-04-19 20:55 | 28.56525 | -80.36310 | 7820 ft | 289 kts | 27° |
| 2026-04-19 20:55 | 28.58282 | -80.35152 | 8570 ft | 294 kts | 28° |
| 2026-04-19 20:55 | 28.60045 | -80.33966 | 9332 ft | 297 kts | 28° |
| 2026-04-19 20:55 | 28.61240 | -80.33161 | 9848 ft | 300 kts | 28° |
| 2026-04-19 20:56 | 28.63035 | -80.31955 | 10556 ft | 303 kts | 27° |
| 2026-04-19 20:56 | 28.65474 | -80.30322 | 11510 ft | 307 kts | 27° |
| 2026-04-19 20:56 | 28.66711 | -80.29492 | 11999 ft | 309 kts | 26° |
| 2026-04-19 20:56 | 28.68570 | -80.28244 | 12753 ft | 312 kts | 26° |
| 2026-04-19 20:57 | 28.70451 | -80.26980 | 13513 ft | 315 kts | 26° |
| 2026-04-19 20:57 | 28.72381 | -80.25686 | 13996 ft | 327 kts | 26° |
| 2026-04-19 20:57 | 28.74351 | -80.24363 | 14003 ft | 334 kts | 26° |
| 2026-04-19 20:57 | 28.76448 | -80.22955 | 14027 ft | 360 kts | 26° |
| 2026-04-19 20:58 | 28.78658 | -80.21470 | 14178 ft | 380 kts | 27° |
| 2026-04-19 20:58 | 28.80983 | -80.19901 | 14383 ft | 399 kts | 27° |
| 2026-04-19 20:58 | 28.83435 | -80.18249 | 14429 ft | 419 kts | 27° |
| 2026-04-19 20:58 | 28.86016 | -80.16509 | 14547 ft | 434 kts | 27° |
| 2026-04-19 20:59 | 28.88598 | -80.14751 | 15091 ft | 436 kts | 29° |
| 2026-04-19 20:59 | 28.90943 | -80.12551 | 15501 ft | 446 kts | 43° |
| 2026-04-19 20:59 | 28.92901 | -80.09731 | 15972 ft | 454 kts | 56° |
| 2026-04-19 20:59 | 28.94270 | -80.06477 | 16410 ft | 460 kts | 69° |
| 2026-04-19 21:00 | 28.95322 | -80.03026 | 16791 ft | 464 kts | 69° |
| 2026-04-19 21:00 | 28.96385 | -79.99565 | 17222 ft | 467 kts | 70° |
| 2026-04-19 21:00 | 28.97469 | -79.96011 | 17629 ft | 470 kts | 70° |
| 2026-04-19 21:00 | 28.98550 | -79.92477 | 18034 ft | 473 kts | 70° |
| 2026-04-19 21:01 | 28.99631 | -79.88948 | 18410 ft | 476 kts | 70° |
| 2026-04-19 21:01 | 29.00727 | -79.85363 | 18744 ft | 479 kts | 70° |
| 2026-04-19 21:01 | 29.01831 | -79.81741 | 19090 ft | 482 kts | 70° |
| 2026-04-19 21:01 | 29.02935 | -79.78115 | 19426 ft | 484 kts | 70° |
| 2026-04-19 21:02 | 29.04040 | -79.74487 | 19901 ft | 487 kts | 70° |
| 2026-04-19 21:02 | 29.05158 | -79.70812 | 20451 ft | 491 kts | 70° |
| 2026-04-19 21:02 | 29.06284 | -79.67103 | 20960 ft | 496 kts | 70° |
| 2026-04-19 21:02 | 29.07508 | -79.63443 | 21394 ft | 499 kts | 62° |
| 2026-04-19 21:03 | 29.09344 | -79.60062 | 21887 ft | 499 kts | 50° |
| 2026-04-19 21:03 | 29.11716 | -79.57187 | 22337 ft | 498 kts | 38° |
| 2026-04-19 21:03 | 29.14528 | -79.54900 | 22794 ft | 496 kts | 26° |
| 2026-04-19 21:03 | 29.17679 | -79.53268 | 23227 ft | 494 kts | 17° |
| 2026-04-19 21:04 | 29.20882 | -79.51895 | 23602 ft | 498 kts | 17° |
| 2026-04-19 21:04 | 29.24176 | -79.50503 | 23974 ft | 501 kts | 16° |
| 2026-04-19 21:04 | 29.27450 | -79.49117 | 24328 ft | 504 kts | 16° |
| 2026-04-19 21:04 | 29.30750 | -79.47702 | 24683 ft | 506 kts | 16° |
| 2026-04-19 21:05 | 29.34028 | -79.46293 | 25014 ft | 508 kts | 16° |
| 2026-04-19 21:05 | 29.37361 | -79.44870 | 25352 ft | 511 kts | 15° |
| 2026-04-19 21:05 | 29.40694 | -79.43448 | 25680 ft | 513 kts | 15° |
| 2026-04-19 21:05 | 29.44026 | -79.42021 | 26011 ft | 515 kts | 15° |
| 2026-04-19 21:06 | 29.47393 | -79.40574 | 26325 ft | 518 kts | 15° |
| 2026-04-19 21:06 | 29.50803 | -79.39113 | 26515 ft | 523 kts | 15° |
| 2026-04-19 21:06 | 29.54259 | -79.37635 | 26527 ft | 532 kts | 15° |
| 2026-04-19 21:06 | 29.57750 | -79.36136 | 26589 ft | 540 kts | 15° |
| 2026-04-19 21:07 | 29.61267 | -79.34616 | 27023 ft | 539 kts | 15° |
| 2026-04-19 21:07 | 29.64775 | -79.33103 | 27469 ft | 538 kts | 14° |
| 2026-04-19 21:07 | 29.68243 | -79.31615 | 27889 ft | 537 kts | 14° |
| 2026-04-19 21:07 | 29.71783 | -79.30093 | 28332 ft | 536 kts | 14° |
| 2026-04-19 21:08 | 29.75272 | -79.28587 | 28766 ft | 536 kts | 14° |
| 2026-04-19 21:08 | 29.78749 | -79.27084 | 29206 ft | 535 kts | 13° |
| 2026-04-19 21:08 | 29.82215 | -79.25588 | 29656 ft | 535 kts | 13° |
| 2026-04-19 21:08 | 29.85685 | -79.24090 | 30104 ft | 534 kts | 13° |
| 2026-04-19 21:09 | 29.89191 | -79.22574 | 30485 ft | 534 kts | 13° |
| 2026-04-19 21:09 | 29.92681 | -79.21064 | 30807 ft | 535 kts | 13° |
| 2026-04-19 21:09 | 29.96147 | -79.19563 | 31153 ft | 535 kts | 13° |
| 2026-04-19 21:09 | 29.99647 | -79.18046 | 31496 ft | 536 kts | 12° |
| 2026-04-19 21:10 | 30.03156 | -79.16524 | 31839 ft | 536 kts | 12° |
| 2026-04-19 21:10 | 30.06646 | -79.15009 | 32197 ft | 536 kts | 12° |
| 2026-04-19 21:10 | 30.10149 | -79.13487 | 32543 ft | 536 kts | 12° |
| 2026-04-19 21:10 | 30.13631 | -79.11974 | 32889 ft | 537 kts | 12° |
| 2026-04-19 21:11 | 30.17113 | -79.10459 | 33232 ft | 537 kts | 12° |
| 2026-04-19 21:11 | 30.20601 | -79.08941 | 33564 ft | 537 kts | 12° |
| 2026-04-19 21:11 | 30.24125 | -79.07405 | 33906 ft | 537 kts | 12° |
| 2026-04-19 21:11 | 30.27588 | -79.05895 | 34220 ft | 537 kts | 12° |
| 2026-04-19 21:12 | 30.31115 | -79.04355 | 34579 ft | 536 kts | 12° |
| 2026-04-19 21:12 | 30.34559 | -79.02849 | 34923 ft | 534 kts | 12° |
| 2026-04-19 21:12 | 30.38031 | -79.01335 | 35296 ft | 532 kts | 12° |
| 2026-04-19 21:12 | 30.41506 | -78.99816 | 35660 ft | 529 kts | 11° |
| 2026-04-19 21:13 | 30.45004 | -78.98571 | 35967 ft | 521 kts | 6° |
| 2026-04-19 21:13 | 30.48461 | -78.97416 | 36299 ft | 520 kts | 7° |
| 2026-04-19 21:13 | 30.51954 | -78.96224 | 36675 ft | 518 kts | 6° |
| 2026-04-19 21:13 | 30.55374 | -78.95071 | 37011 ft | 516 kts | 6° |
| 2026-04-19 21:14 | 30.58824 | -78.93923 | 37356 ft | 515 kts | 6° |
| 2026-04-19 21:14 | 30.62255 | -78.92774 | 37687 ft | 513 kts | 6° |
| 2026-04-19 21:14 | 30.65699 | -78.91609 | 38018 ft | 512 kts | 6° |
| 2026-04-19 21:14 | 30.69127 | -78.90451 | 38326 ft | 511 kts | 6° |
| 2026-04-19 21:15 | 30.72518 | -78.89311 | 38639 ft | 510 kts | 6° |
| 2026-04-19 21:15 | 30.75953 | -78.88155 | 38889 ft | 509 kts | 6° |
| 2026-04-19 21:15 | 30.82786 | -78.85850 | 38931 ft | 516 kts | 6° |
| 2026-04-19 21:16 | 30.89725 | -78.83501 | 39018 ft | 520 kts | 6° |
| 2026-04-19 21:16 | 30.96699 | -78.81140 | 39041 ft | 524 kts | 6° |
| 2026-04-19 21:17 | 31.03663 | -78.78774 | 39043 ft | 521 kts | 6° |
| 2026-04-19 21:17 | 31.10655 | -78.76405 | 39040 ft | 523 kts | 6° |
| 2026-04-19 21:18 | 31.17592 | -78.74039 | 39032 ft | 522 kts | 6° |
| 2026-04-19 21:18 | 31.24598 | -78.71656 | 39039 ft | 522 kts | 6° |
| 2026-04-19 21:19 | 31.31546 | -78.69283 | 39037 ft | 523 kts | 6° |
| 2026-04-19 21:19 | 31.38553 | -78.66890 | 39037 ft | 524 kts | 6° |
| 2026-04-19 21:20 | 31.45558 | -78.64490 | 39042 ft | 523 kts | 6° |
| 2026-04-19 21:20 | 31.52546 | -78.62096 | 39045 ft | 523 kts | 6° |
| 2026-04-19 21:21 | 31.59528 | -78.59765 | 39046 ft | 522 kts | 5° |
| 2026-04-19 21:21 | 31.66536 | -78.57552 | 39042 ft | 523 kts | 6° |
| 2026-04-19 21:22 | 31.73585 | -78.55230 | 39049 ft | 523 kts | 6° |
| 2026-04-19 21:22 | 31.80574 | -78.52982 | 39049 ft | 522 kts | 6° |
| 2026-04-19 21:23 | 31.87603 | -78.50686 | 39045 ft | 526 kts | 6° |
| 2026-04-19 21:23 | 31.94690 | -78.48383 | 39044 ft | 530 kts | 6° |
| 2026-04-19 21:24 | 32.01808 | -78.46055 | 39049 ft | 530 kts | 6° |
| 2026-04-19 21:24 | 32.08923 | -78.43732 | 39053 ft | 529 kts | 6° |
| 2026-04-19 21:25 | 32.15991 | -78.41418 | 39056 ft | 529 kts | 6° |
| 2026-04-19 21:25 | 32.23122 | -78.39080 | 39056 ft | 529 kts | 7° |
| 2026-04-19 21:26 | 32.30178 | -78.36764 | 39057 ft | 529 kts | 7° |
| 2026-04-19 21:26 | 32.37278 | -78.34427 | 39052 ft | 528 kts | 7° |
| 2026-04-19 21:27 | 32.44340 | -78.32101 | 39057 ft | 528 kts | 7° |
| 2026-04-19 21:27 | 32.51445 | -78.29757 | 39061 ft | 529 kts | 7° |
| 2026-04-19 21:28 | 32.58545 | -78.27409 | 39058 ft | 528 kts | 7° |
| 2026-04-19 21:28 | 32.65607 | -78.25071 | 39063 ft | 527 kts | 7° |
| 2026-04-19 21:29 | 32.72674 | -78.22728 | 39069 ft | 527 kts | 7° |
| 2026-04-19 21:29 | 32.79739 | -78.20381 | 39064 ft | 527 kts | 7° |
| 2026-04-19 21:30 | 32.86829 | -78.18021 | 39073 ft | 527 kts | 7° |
| 2026-04-19 21:30 | 32.93857 | -78.15679 | 39069 ft | 526 kts | 7° |
| 2026-04-19 21:31 | 33.00963 | -78.13307 | 39067 ft | 526 kts | 7° |
| 2026-04-19 21:31 | 33.08008 | -78.10950 | 39074 ft | 524 kts | 7° |
| 2026-04-19 21:32 | 33.14996 | -78.08611 | 39070 ft | 524 kts | 7° |
| 2026-04-19 21:32 | 33.22006 | -78.06258 | 39071 ft | 524 kts | 7° |
| 2026-04-19 21:33 | 33.27881 | -78.04284 | 39075 ft | 524 kts | 7° |
| 2026-04-19 21:33 | 33.34885 | -78.01927 | 39070 ft | 524 kts | 7° |
| 2026-04-19 21:34 | 33.41900 | -77.99563 | 39071 ft | 524 kts | 7° |
| 2026-04-19 21:34 | 33.48938 | -77.97185 | 39070 ft | 524 kts | 7° |
| 2026-04-19 21:35 | 33.55952 | -77.94814 | 39072 ft | 525 kts | 7° |
| 2026-04-19 21:35 | 33.62988 | -77.92429 | 39070 ft | 525 kts | 7° |
| 2026-04-19 21:36 | 33.70020 | -77.90042 | 39068 ft | 525 kts | 7° |
| 2026-04-19 21:36 | 33.77069 | -77.87645 | 39070 ft | 525 kts | 7° |